Time;durP1;ratioP1;P1;durP2;ratioP2;P2;SDS_P1;SDS_P2;PMS_P1;PMS_P2;Temp;Humidity;BMP_temperature;BMP_pressure;BME280_temperature;BME280_humidity;BME280_pressure;Samples;Min_cycle;Max_cycle;Signal;HPM_P1;HPM_P2
2024/03/17 00:00:22;;;;;;;14.75;9.98;;;;;;;;;;5078443;28;20176;-81
2024/03/17 00:02:48;;;;;;;14.93;9.43;;;;;;;;;;5082257;28;20196;-81
2024/03/17 00:05:15;;;;;;;14.30;10.70;;;;;;;;;;5081435;28;20239;-81
2024/03/17 00:07:41;;;;;;;16.45;9.90;;;;;;;;;;5077164;28;20202;-82
2024/03/17 00:10:07;;;;;;;16.80;10.75;;;;;;;;;;5079801;28;20189;-81
2024/03/17 00:12:33;;;;;;;14.45;11.02;;;;;;;;;;5083719;28;20185;-81
2024/03/17 00:14:59;;;;;;;15.73;11.20;;;;;;;;;;5086546;28;20184;-81
2024/03/17 00:17:25;;;;;;;14.38;10.15;;;;;;;;;;5082749;28;20188;-81
2024/03/17 00:19:51;;;;;;;13.70;10.50;;;;;;;;;;5085056;28;20252;-81
2024/03/17 00:22:17;;;;;;;17.03;10.50;;;;;;;;;;5082584;28;20232;-82
2024/03/17 00:24:44;;;;;;;12.67;9.97;;;;;;;;;;5081876;28;20432;-81
2024/03/17 00:27:11;;;;;;;15.00;10.65;;;;;;;;;;5078522;28;20484;-82
2024/03/17 00:29:37;;;;;;;13.00;9.57;;;;;;;;;;5081885;28;20189;-81
2024/03/17 00:32:03;;;;;;;14.98;10.55;;;;;;;;;;5067467;28;20243;-81
2024/03/17 00:34:29;;;;;;;17.08;9.32;;;;;;;;;;5079557;28;20188;-81
2024/03/17 00:36:55;;;;;;;12.47;9.67;;;;;;;;;;5068793;28;20176;-82
2024/03/17 00:39:21;;;;;;;12.87;9.60;;;;;;;;;;5074279;28;20414;-81
2024/03/17 00:41:47;;;;;;;15.73;9.55;;;;;;;;;;5081346;28;20553;-82
2024/03/17 00:44:13;;;;;;;13.88;9.27;;;;;;;;;;5071391;28;20177;-81
2024/03/17 00:46:41;;;;;;;11.97;10.53;;;;;;;;;;5082036;28;20236;-81
2024/03/17 00:49:08;;;;;;;13.02;9.70;;;;;;;;;;5096265;28;20474;-81
2024/03/17 00:51:34;;;;;;;16.27;11.18;;;;;;;;;;5082873;28;20267;-82
2024/03/17 00:54:00;;;;;;;14.43;10.10;;;;;;;;;;5081024;28;20189;-81
2024/03/17 00:56:26;;;;;;;11.90;9.27;;;;;;;;;;5080497;28;20431;-81
2024/03/17 00:58:52;;;;;;;14.03;9.23;;;;;;;;;;5081489;28;20836;-81
2024/03/17 01:01:19;;;;;;;12.40;9.15;;;;;;;;;;5075494;28;20510;-82
2024/03/17 01:03:45;;;;;;;11.15;8.93;;;;;;;;;;5082489;28;20179;-81
2024/03/17 01:06:11;;;;;;;13.52;9.63;;;;;;;;;;5082035;28;20637;-82
2024/03/17 01:08:37;;;;;;;16.63;11.00;;;;;;;;;;5077884;28;20249;-81
2024/03/17 01:11:03;;;;;;;15.73;8.93;;;;;;;;;;5075205;28;20423;-80
2024/03/17 01:13:30;;;;;;;13.15;8.95;;;;;;;;;;5078873;28;20578;-81
2024/03/17 01:15:56;;;;;;;11.43;9.55;;;;;;;;;;5083707;28;20225;-81
2024/03/17 01:18:22;;;;;;;12.68;9.18;;;;;;;;;;5084039;28;20179;-81
2024/03/17 01:20:48;;;;;;;13.63;9.25;;;;;;;;;;5079051;28;20192;-81
2024/03/17 01:23:14;;;;;;;18.70;8.90;;;;;;;;;;5082612;28;20501;-81
2024/03/17 01:25:40;;;;;;;12.30;8.63;;;;;;;;;;5070774;28;20967;-81
2024/03/17 01:28:06;;;;;;;15.98;9.23;;;;;;;;;;5078003;28;20283;-81
2024/03/17 01:30:34;;;;;;;18.33;10.75;;;;;;;;;;5094503;28;20193;-81
2024/03/17 01:33:00;;;;;;;16.27;10.10;;;;;;;;;;5077726;28;20230;-81
2024/03/17 01:35:26;;;;;;;12.60;9.70;;;;;;;;;;5069845;28;20542;-82
2024/03/17 01:37:52;;;;;;;13.63;10.20;;;;;;;;;;5072172;28;20196;-81
2024/03/17 01:40:18;;;;;;;16.00;9.50;;;;;;;;;;5090224;28;20254;-80
2024/03/17 01:42:44;;;;;;;14.23;10.27;;;;;;;;;;5070510;28;20445;-81
2024/03/17 01:45:16;;;;;;;15.87;10.50;;;;;;;;;;5076312;28;20546;-81
2024/03/17 01:47:42;;;;;;;15.15;11.07;;;;;;;;;;5076048;28;20491;-81
2024/03/17 01:50:09;;;;;;;13.25;10.50;;;;;;;;;;5083917;28;20191;-81
2024/03/17 01:52:35;;;;;;;12.07;9.40;;;;;;;;;;5076297;28;20191;-81
2024/03/17 01:55:03;;;;;;;16.77;9.77;;;;;;;;;;5082785;28;20533;-81
2024/03/17 01:57:29;;;;;;;11.95;9.80;;;;;;;;;;5076854;28;20203;-81
2024/03/17 01:59:56;;;;;;;13.25;9.95;;;;;;;;;;5083915;28;20185;-82
2024/03/17 02:02:22;;;;;;;13.70;9.82;;;;;;;;;;5073860;28;20204;-82
2024/03/17 02:04:48;;;;;;;16.57;10.50;;;;;;;;;;5075765;28;20649;-82
2024/03/17 02:07:15;;;;;;;13.68;10.18;;;;;;;;;;5074134;28;20470;-82
2024/03/17 02:09:42;;;;;;;16.13;9.88;;;;;;;;;;5071414;28;20173;-81
2024/03/17 02:12:09;;;;;;;12.93;9.18;;;;;;;;;;5092779;28;20291;-81
2024/03/17 02:14:35;;;;;;;12.75;9.60;;;;;;;;;;5073895;28;20173;-81
2024/03/17 02:17:02;;;;;;;12.63;10.40;;;;;;;;;;5075866;28;20211;-81
2024/03/17 02:19:28;;;;;;;15.88;10.10;;;;;;;;;;5084040;28;20176;-81
2024/03/17 02:21:54;;;;;;;13.13;9.20;;;;;;;;;;5080087;28;20181;-81
2024/03/17 02:24:20;;;;;;;12.70;9.60;;;;;;;;;;5072805;28;20490;-81
2024/03/17 02:26:46;;;;;;;14.80;9.00;;;;;;;;;;5091669;28;20982;-81
2024/03/17 02:29:11;;;;;;;13.27;9.35;;;;;;;;;;5074904;28;20430;-81
2024/03/17 02:31:37;;;;;;;12.80;9.10;;;;;;;;;;5080541;28;20590;-81
2024/03/17 02:34:03;;;;;;;15.37;9.50;;;;;;;;;;5080150;28;20419;-81
2024/03/17 02:36:29;;;;;;;12.40;9.50;;;;;;;;;;5074808;28;20440;-81
2024/03/17 02:41:43;;;;;;;14.85;8.07;;;;;;;;;;5084309;28;20542;-81
2024/03/17 02:44:10;;;;;;;12.73;8.93;;;;;;;;;;5090874;28;20172;-81
2024/03/17 02:46:37;;;;;;;10.00;7.60;;;;;;;;;;5064836;28;20288;-81
2024/03/17 02:49:04;;;;;;;11.63;8.98;;;;;;;;;;5079244;28;20185;-81
2024/03/17 02:51:30;;;;;;;11.70;7.80;;;;;;;;;;5081959;28;20643;-82
2024/03/17 02:53:56;;;;;;;12.57;8.33;;;;;;;;;;5081996;28;20238;-81
2024/03/17 02:56:22;;;;;;;10.68;8.55;;;;;;;;;;5084314;28;20745;-81
2024/03/17 02:58:51;;;;;;;11.80;8.82;;;;;;;;;;5089421;28;20179;-81
2024/03/17 03:01:18;;;;;;;12.50;8.50;;;;;;;;;;5078033;28;20198;-81
2024/03/17 03:03:45;;;;;;;9.02;7.90;;;;;;;;;;5073816;28;20176;-81
2024/03/17 03:06:12;;;;;;;12.57;8.52;;;;;;;;;;5083857;28;20195;-81
2024/03/17 03:08:40;;;;;;;9.98;7.90;;;;;;;;;;5080510;28;20577;-81
2024/03/17 03:11:07;;;;;;;11.55;8.20;;;;;;;;;;5082615;28;20642;-81
2024/03/17 03:13:33;;;;;;;10.10;7.72;;;;;;;;;;5077990;28;20173;-81
2024/03/17 03:15:59;;;;;;;11.32;7.95;;;;;;;;;;5075683;28;20281;-81
2024/03/17 03:18:25;;;;;;;7.97;6.70;;;;;;;;;;5066223;28;20192;-81
2024/03/17 03:20:52;;;;;;;10.83;7.13;;;;;;;;;;5093440;28;20784;-81
2024/03/17 03:23:18;;;;;;;10.77;8.23;;;;;;;;;;5077139;28;20427;-81
2024/03/17 03:25:44;;;;;;;9.90;8.18;;;;;;;;;;5091041;28;20270;-81
2024/03/17 03:28:10;;;;;;;11.15;7.60;;;;;;;;;;5088015;28;20615;-82
2024/03/17 03:30:37;;;;;;;13.07;7.00;;;;;;;;;;5074929;28;20224;-81
2024/03/17 03:33:04;;;;;;;9.50;7.60;;;;;;;;;;5075010;28;20455;-81
2024/03/17 03:35:30;;;;;;;11.05;8.15;;;;;;;;;;5089252;28;20179;-81
2024/03/17 03:37:56;;;;;;;9.50;7.60;;;;;;;;;;5080060;28;20189;-81
2024/03/17 03:40:22;;;;;;;8.93;7.53;;;;;;;;;;5080059;28;20431;-82
2024/03/17 03:42:48;;;;;;;12.73;7.32;;;;;;;;;;5091092;28;20442;-80
2024/03/17 03:45:14;;;;;;;8.43;6.70;;;;;;;;;;5072084;28;20188;-81
2024/03/17 03:47:41;;;;;;;10.57;6.72;;;;;;;;;;5091489;28;20570;-81
2024/03/17 03:50:15;;;;;;;10.65;7.13;;;;;;;;;;5077541;28;20181;-82
2024/03/17 03:52:41;;;;;;;9.45;7.00;;;;;;;;;;5079553;28;20203;-82
2024/03/17 03:55:10;;;;;;;10.85;7.35;;;;;;;;;;5082468;28;20180;-81
2024/03/17 03:57:36;;;;;;;10.15;7.00;;;;;;;;;;5076142;28;20213;-82
2024/03/17 04:00:13;;;;;;;11.00;7.97;;;;;;;;;;5078531;28;20176;-82
2024/03/17 04:02:42;;;;;;;10.48;6.32;;;;;;;;;;5081454;28;20188;-82
2024/03/17 04:05:09;;;;;;;7.43;6.63;;;;;;;;;;5081813;28;20237;-82
2024/03/17 04:07:36;;;;;;;11.68;7.95;;;;;;;;;;5085598;28;20216;-82
2024/03/17 04:10:02;;;;;;;11.70;7.00;;;;;;;;;;5081890;28;20177;-82
2024/03/17 04:12:30;;;;;;;9.57;6.97;;;;;;;;;;5081123;28;20185;-82
2024/03/17 04:14:57;;;;;;;8.13;6.20;;;;;;;;;;5103659;28;20703;-82
2024/03/17 04:17:23;;;;;;;9.48;6.55;;;;;;;;;;5080307;28;20193;-82
2024/03/17 04:19:49;;;;;;;9.60;7.72;;;;;;;;;;5074583;28;20177;-81
2024/03/17 04:22:18;;;;;;;10.15;6.07;;;;;;;;;;5083368;28;20174;-83
2024/03/17 04:24:45;;;;;;;9.65;6.55;;;;;;;;;;5084452;28;20207;-82
2024/03/17 04:27:11;;;;;;;8.38;6.60;;;;;;;;;;5077973;28;20258;-82
2024/03/17 04:29:37;;;;;;;9.82;6.07;;;;;;;;;;5072130;28;20281;-82
2024/03/17 04:32:04;;;;;;;7.05;5.72;;;;;;;;;;5085353;28;20181;-82
2024/03/17 04:34:31;;;;;;;7.10;5.97;;;;;;;;;;5071557;28;20173;-82
2024/03/17 04:36:57;;;;;;;8.57;5.90;;;;;;;;;;5079276;28;20192;-82
2024/03/17 04:39:23;;;;;;;7.25;5.35;;;;;;;;;;5089798;28;20217;-82
2024/03/17 04:41:49;;;;;;;7.18;5.10;;;;;;;;;;5083551;28;20177;-82
2024/03/17 04:44:16;;;;;;;6.30;5.35;;;;;;;;;;5078070;28;20184;-82
2024/03/17 04:46:42;;;;;;;6.15;4.63;;;;;;;;;;5074268;28;20247;-82
2024/03/17 04:49:08;;;;;;;6.93;4.97;;;;;;;;;;5084489;28;20186;-82
2024/03/17 04:51:34;;;;;;;5.13;4.60;;;;;;;;;;5086406;28;20423;-83
2024/03/17 04:54:03;;;;;;;7.65;4.97;;;;;;;;;;5084523;28;20589;-82
2024/03/17 04:56:29;;;;;;;6.88;4.72;;;;;;;;;;5078581;28;20181;-83
2024/03/17 04:58:54;;;;;;;7.40;5.47;;;;;;;;;;5092547;28;20186;-82
2024/03/17 05:01:20;;;;;;;9.70;4.30;;;;;;;;;;5070684;28;20411;-83
2024/03/17 05:03:46;;;;;;;6.28;4.72;;;;;;;;;;5078881;28;20521;-82
2024/03/17 05:06:12;;;;;;;5.80;4.77;;;;;;;;;;5076358;28;20222;-82
2024/03/17 05:08:38;;;;;;;5.03;4.50;;;;;;;;;;5080933;28;20425;-82
2024/03/17 05:11:05;;;;;;;8.32;4.30;;;;;;;;;;5086301;28;21057;-83
2024/03/17 05:13:34;;;;;;;4.80;4.30;;;;;;;;;;5082001;28;20178;-83
2024/03/17 05:16:01;;;;;;;4.15;3.70;;;;;;;;;;5081910;28;20204;-82
2024/03/17 05:18:27;;;;;;;3.95;3.65;;;;;;;;;;5073482;28;20265;-83
2024/03/17 05:21:03;;;;;;;6.35;3.80;;;;;;;;;;5074558;28;20188;-82
2024/03/17 05:23:33;;;;;;;4.00;3.47;;;;;;;;;;5085320;28;20227;-82
2024/03/17 05:26:00;;;;;;;4.43;3.35;;;;;;;;;;5080752;28;20587;-83
2024/03/17 05:28:26;;;;;;;3.80;3.45;;;;;;;;;;5077177;28;20220;-83
2024/03/17 05:30:52;;;;;;;5.50;3.25;;;;;;;;;;5078470;28;20276;-83
2024/03/17 05:33:19;;;;;;;4.05;3.65;;;;;;;;;;5083915;28;20172;-82
2024/03/17 05:35:52;;;;;;;4.13;3.65;;;;;;;;;;5080608;28;20266;-82
2024/03/17 05:38:19;;;;;;;3.97;3.55;;;;;;;;;;5079956;28;20545;-82
2024/03/17 05:40:45;;;;;;;4.35;3.40;;;;;;;;;;5077655;28;20184;-82
2024/03/17 05:43:11;;;;;;;4.63;3.85;;;;;;;;;;5077776;28;20270;-83
2024/03/17 05:45:37;;;;;;;3.42;3.13;;;;;;;;;;5076100;28;20223;-82
2024/03/17 05:48:05;;;;;;;5.67;3.30;;;;;;;;;;5074079;28;20240;-82
2024/03/17 05:50:31;;;;;;;3.58;2.95;;;;;;;;;;5081525;28;20430;-82
2024/03/17 05:52:57;;;;;;;3.85;3.00;;;;;;;;;;5082708;28;20184;-82
2024/03/17 05:55:23;;;;;;;4.90;2.90;;;;;;;;;;5080427;28;20269;-82
2024/03/17 05:57:49;;;;;;;4.53;2.90;;;;;;;;;;5078734;28;20427;-82
2024/03/17 06:00:15;;;;;;;4.63;2.90;;;;;;;;;;5065032;28;20463;-83
2024/03/17 06:02:41;;;;;;;5.45;3.20;;;;;;;;;;5077475;28;20777;-82
2024/03/17 06:05:10;;;;;;;3.20;2.90;;;;;;;;;;5080915;28;20186;-82
2024/03/17 06:07:36;;;;;;;4.63;2.80;;;;;;;;;;5060539;28;20266;-83
2024/03/17 06:10:02;;;;;;;4.03;3.28;;;;;;;;;;5068159;28;20188;-82
2024/03/17 06:12:28;;;;;;;5.13;3.00;;;;;;;;;;5076892;28;20188;-82
2024/03/17 06:14:53;;;;;;;3.58;2.45;;;;;;;;;;5080048;28;20770;-82
2024/03/17 06:17:19;;;;;;;3.67;2.90;;;;;;;;;;5081939;28;20195;-82
2024/03/17 06:19:45;;;;;;;4.93;2.63;;;;;;;;;;5075927;28;20180;-82
2024/03/17 06:22:11;;;;;;;3.67;2.85;;;;;;;;;;5088055;28;20722;-82
2024/03/17 06:24:37;;;;;;;3.37;2.90;;;;;;;;;;5083972;28;20183;-81
2024/03/17 06:27:04;;;;;;;3.33;2.92;;;;;;;;;;5082626;28;20471;-83
2024/03/17 06:29:32;;;;;;;4.90;3.40;;;;;;;;;;5085843;28;20185;-82
2024/03/17 06:31:59;;;;;;;5.82;3.28;;;;;;;;;;5078094;28;20219;-82
2024/03/17 06:34:25;;;;;;;4.78;2.88;;;;;;;;;;5082682;28;20543;-82
2024/03/17 06:36:51;;;;;;;3.65;3.10;;;;;;;;;;5088029;28;20200;-82
2024/03/17 06:39:19;;;;;;;4.63;3.25;;;;;;;;;;5086095;28;20176;-83
2024/03/17 06:41:45;;;;;;;5.88;3.13;;;;;;;;;;5080671;28;20173;-81
2024/03/17 06:44:11;;;;;;;3.63;2.80;;;;;;;;;;5076195;28;20180;-83
2024/03/17 06:46:37;;;;;;;4.35;3.60;;;;;;;;;;5089576;28;20763;-83
2024/03/17 06:49:03;;;;;;;3.20;2.75;;;;;;;;;;5100614;28;20186;-84
2024/03/17 06:51:29;;;;;;;3.73;3.10;;;;;;;;;;5074776;28;20654;-83
2024/03/17 06:53:55;;;;;;;3.08;2.05;;;;;;;;;;5084508;28;20470;-82
2024/03/17 06:56:21;;;;;;;8.95;4.30;;;;;;;;;;5085071;28;20204;-83
2024/03/17 06:58:47;;;;;;;5.22;3.60;;;;;;;;;;5086023;28;20256;-83
2024/03/17 07:01:13;;;;;;;4.57;3.70;;;;;;;;;;5089894;28;20179;-83
2024/03/17 07:03:39;;;;;;;3.77;2.73;;;;;;;;;;5074302;28;20923;-83
2024/03/17 07:06:07;;;;;;;4.77;2.87;;;;;;;;;;5078564;28;20540;-83
2024/03/17 07:08:33;;;;;;;3.63;2.30;;;;;;;;;;5074002;28;20958;-83
2024/03/17 07:11:01;;;;;;;2.70;2.40;;;;;;;;;;5069639;28;20657;-83
2024/03/17 07:13:28;;;;;;;2.80;2.45;;;;;;;;;;5083477;28;20662;-82
2024/03/17 07:15:54;;;;;;;2.80;2.33;;;;;;;;;;5074494;28;20223;-82
2024/03/17 07:18:20;;;;;;;3.40;2.77;;;;;;;;;;5083069;28;20218;-83
2024/03/17 07:20:47;;;;;;;3.58;2.35;;;;;;;;;;5093323;28;20402;-84
2024/03/17 07:23:14;;;;;;;18.52;3.00;;;;;;;;;;5077359;28;20204;-84
2024/03/17 07:25:40;;;;;;;5.00;3.20;;;;;;;;;;5078255;28;20177;-84
2024/03/17 07:28:06;;;;;;;3.27;2.73;;;;;;;;;;5087435;28;20242;-83
2024/03/17 07:30:32;;;;;;;3.30;2.40;;;;;;;;;;5080028;28;20436;-84
2024/03/17 07:32:58;;;;;;;2.70;2.00;;;;;;;;;;5081246;28;20186;-83
2024/03/17 07:35:24;;;;;;;2.67;2.00;;;;;;;;;;5068958;28;20188;-84
2024/03/17 07:37:50;;;;;;;3.03;2.33;;;;;;;;;;5080395;28;20865;-84
2024/03/17 07:40:16;;;;;;;3.22;2.60;;;;;;;;;;5089923;28;20555;-82
2024/03/17 07:42:42;;;;;;;3.97;3.20;;;;;;;;;;5084011;28;20262;-83
2024/03/17 07:45:09;;;;;;;4.65;3.25;;;;;;;;;;5076392;28;20675;-84
2024/03/17 07:47:37;;;;;;;2.90;2.53;;;;;;;;;;5071791;28;20580;-84
2024/03/17 07:50:06;;;;;;;3.75;2.58;;;;;;;;;;5080249;28;20180;-84
2024/03/17 07:52:32;;;;;;;4.38;2.55;;;;;;;;;;5081091;28;20551;-84
2024/03/17 07:54:58;;;;;;;2.50;2.30;;;;;;;;;;5083719;28;20188;-83
2024/03/17 07:57:24;;;;;;;4.63;2.60;;;;;;;;;;5078340;28;20188;-84
2024/03/17 07:59:53;;;;;;;4.45;2.20;;;;;;;;;;5073226;28;20499;-82
2024/03/17 08:02:19;;;;;;;5.75;3.55;;;;;;;;;;5077850;28;20200;-88
2024/03/17 08:04:45;;;;;;;3.60;2.30;;;;;;;;;;5069991;28;20193;-90
2024/03/17 08:07:11;;;;;;;4.23;3.83;;;;;;;;;;5073700;28;20669;-89
2024/03/17 08:09:37;;;;;;;2.87;2.07;;;;;;;;;;5080702;28;20480;-89
2024/03/17 08:12:04;;;;;;;3.95;2.70;;;;;;;;;;5080153;28;20470;-89
2024/03/17 08:14:30;;;;;;;4.35;2.92;;;;;;;;;;5059779;28;20185;-83
2024/03/17 08:16:56;;;;;;;3.72;1.83;;;;;;;;;;5076469;28;20204;-83
2024/03/17 08:19:22;;;;;;;7.10;2.55;;;;;;;;;;5073180;28;20188;-83
2024/03/17 08:21:49;;;;;;;2.80;2.37;;;;;;;;;;5084050;28;20184;-83
2024/03/17 08:24:15;;;;;;;2.20;2.00;;;;;;;;;;5082888;28;20423;-81
2024/03/17 08:26:41;;;;;;;4.67;3.13;;;;;;;;;;5076744;28;20216;-81
2024/03/17 08:29:07;;;;;;;3.23;2.70;;;;;;;;;;5086847;28;20458;-82
2024/03/17 08:31:33;;;;;;;3.72;2.20;;;;;;;;;;5077722;28;20419;-83
2024/03/17 08:33:59;;;;;;;4.20;3.10;;;;;;;;;;5075511;28;20181;-83
2024/03/17 08:36:25;;;;;;;7.72;2.90;;;;;;;;;;5076501;28;20181;-84
2024/03/17 08:38:51;;;;;;;3.58;2.42;;;;;;;;;;5088200;28;20175;-82
2024/03/17 08:41:18;;;;;;;2.90;2.58;;;;;;;;;;5079252;28;20177;-83
2024/03/17 08:43:44;;;;;;;3.42;2.35;;;;;;;;;;5093074;28;20191;-83
2024/03/17 08:46:11;;;;;;;5.60;3.10;;;;;;;;;;5074249;28;20697;-83
2024/03/17 08:48:38;;;;;;;2.75;2.35;;;;;;;;;;5081557;28;20426;-83
2024/03/17 08:51:05;;;;;;;4.20;2.88;;;;;;;;;;5077083;28;20177;-83
2024/03/17 08:53:31;;;;;;;4.72;3.28;;;;;;;;;;5082160;28;20180;-82
2024/03/17 08:55:58;;;;;;;5.82;2.30;;;;;;;;;;5074439;28;20177;-83
2024/03/17 08:58:24;;;;;;;3.92;2.47;;;;;;;;;;5079550;28;20184;-83
2024/03/17 09:00:51;;;;;;;4.82;2.45;;;;;;;;;;5078411;28;20597;-83
2024/03/17 09:03:17;;;;;;;3.17;2.25;;;;;;;;;;5081005;28;20179;-83
2024/03/17 09:05:44;;;;;;;3.65;2.40;;;;;;;;;;5075905;28;20175;-83
2024/03/17 09:08:21;;;;;;;3.70;2.85;;;;;;;;;;5093211;28;20675;-84
2024/03/17 09:10:48;;;;;;;4.00;2.70;;;;;;;;;;5080549;28;20173;-83
2024/03/17 09:13:15;;;;;;;3.40;2.17;;;;;;;;;;5072138;28;20279;-82
2024/03/17 09:15:41;;;;;;;2.45;2.22;;;;;;;;;;5083925;28;20173;-83
2024/03/17 09:18:07;;;;;;;3.13;2.55;;;;;;;;;;5077781;28;20191;-84
2024/03/17 09:20:33;;;;;;;5.15;2.88;;;;;;;;;;5074014;28;20205;-84
2024/03/17 09:22:59;;;;;;;3.90;2.87;;;;;;;;;;5079244;28;20193;-83
2024/03/17 09:25:25;;;;;;;3.10;2.60;;;;;;;;;;5072155;28;20431;-84
2024/03/17 09:27:51;;;;;;;3.03;2.73;;;;;;;;;;5082118;28;20462;-82
2024/03/17 09:30:17;;;;;;;6.13;2.37;;;;;;;;;;5083806;28;20418;-83
2024/03/17 09:32:44;;;;;;;3.10;2.20;;;;;;;;;;5079104;28;20430;-82
2024/03/17 09:35:10;;;;;;;4.00;2.67;;;;;;;;;;5082451;28;20449;-83
2024/03/17 09:37:36;;;;;;;3.07;2.17;;;;;;;;;;5080224;28;20732;-83
2024/03/17 09:40:06;;;;;;;3.83;2.40;;;;;;;;;;5076209;28;20420;-84
2024/03/17 09:42:32;;;;;;;3.10;2.40;;;;;;;;;;5076386;28;20495;-81
2024/03/17 09:44:58;;;;;;;4.13;2.50;;;;;;;;;;5083957;28;20436;-83
2024/03/17 09:47:26;;;;;;;2.70;2.43;;;;;;;;;;5089244;28;20545;-81
2024/03/17 09:49:52;;;;;;;2.63;2.37;;;;;;;;;;5076021;28;20516;-82
2024/03/17 09:52:22;;;;;;;3.03;2.80;;;;;;;;;;5076958;28;20728;-82
2024/03/17 09:55:13;;;;;;;2.70;2.50;;;;;;;;;;5079569;28;20509;-84
2024/03/17 09:57:40;;;;;;;2.87;2.50;;;;;;;;;;5076469;28;20533;-84
2024/03/17 10:00:13;;;;;;;3.07;2.77;;;;;;;;;;5075495;28;20427;-84
2024/03/17 10:02:46;;;;;;;4.93;2.80;;;;;;;;;;5084174;28;20481;-81
2024/03/17 10:05:20;;;;;;;3.23;2.93;;;;;;;;;;5080449;28;20410;-82
2024/03/17 10:07:46;;;;;;;8.43;4.37;;;;;;;;;;5075612;28;20466;-83
2024/03/17 10:10:13;;;;;;;5.87;3.23;;;;;;;;;;5071385;28;20439;-83
2024/03/17 10:12:39;;;;;;;4.63;2.90;;;;;;;;;;5069398;28;20435;-83
2024/03/17 10:15:05;;;;;;;4.40;2.80;;;;;;;;;;5089068;28;20444;-82
2024/03/17 10:17:32;;;;;;;10.20;3.50;;;;;;;;;;5067639;28;20865;-82
2024/03/17 10:20:16;;;;;;;4.43;2.70;;;;;;;;;;5076956;28;20434;-83
2024/03/17 10:23:01;;;;;;;2.80;2.50;;;;;;;;;;5076205;28;20426;-84
2024/03/17 10:25:28;;;;;;;2.90;2.70;;;;;;;;;;5073940;28;20423;-82
2024/03/17 10:27:54;;;;;;;2.80;2.33;;;;;;;;;;5086386;28;20458;-83
2024/03/17 10:30:21;;;;;;;3.17;2.87;;;;;;;;;;5075604;28;20430;-83
2024/03/17 10:32:53;;;;;;;4.33;2.97;;;;;;;;;;5075602;28;20472;-81
2024/03/17 10:35:27;;;;;;;3.53;3.23;;;;;;;;;;5077648;28;20434;-83
2024/03/17 10:38:13;;;;;;;6.67;5.40;;;;;;;;;;5084676;28;20418;-83
2024/03/17 10:40:40;;;;;;;4.90;3.50;;;;;;;;;;5078013;28;20431;-83
2024/03/17 10:43:06;;;;;;;3.83;2.90;;;;;;;;;;5078106;28;20514;-82
2024/03/17 10:45:37;;;;;;;4.50;3.20;;;;;;;;;;5072410;28;20424;-82
2024/03/17 10:48:07;;;;;;;5.07;3.30;;;;;;;;;;5077614;28;20487;-83
2024/03/17 10:50:36;;;;;;;5.40;2.93;;;;;;;;;;5084007;28;20463;-83
2024/03/17 10:53:03;;;;;;;3.70;3.10;;;;;;;;;;5079603;28;20802;-83
2024/03/17 10:55:32;;;;;;;7.60;3.63;;;;;;;;;;5087554;28;20385;-82
2024/03/17 10:58:01;;;;;;;5.77;2.77;;;;;;;;;;5082191;28;20424;-83
2024/03/17 11:00:29;;;;;;;3.30;3.00;;;;;;;;;;5079556;28;20384;-82
2024/03/17 11:02:55;;;;;;;3.50;2.60;;;;;;;;;;5080828;28;20766;-83
2024/03/17 11:05:23;;;;;;;4.63;2.73;;;;;;;;;;5068408;28;20407;-83
2024/03/17 11:07:50;;;;;;;3.50;2.70;;;;;;;;;;5080006;28;20788;-82
2024/03/17 11:10:19;;;;;;;5.60;2.70;;;;;;;;;;5082002;28;20433;-83
2024/03/17 11:12:52;;;;;;;3.97;2.97;;;;;;;;;;5074021;28;20402;-83
2024/03/17 11:15:24;;;;;;;4.00;2.70;;;;;;;;;;5079079;28;20422;-84
2024/03/17 11:17:51;;;;;;;5.00;2.93;;;;;;;;;;5075793;28;20430;-83
2024/03/17 11:20:29;;;;;;;3.27;2.97;;;;;;;;;;5077637;28;20924;-84
2024/03/17 11:22:56;;;;;;;4.43;3.50;;;;;;;;;;5074712;28;20956;-83
2024/03/17 11:25:32;;;;;;;4.43;2.70;;;;;;;;;;5075276;28;20850;-84
2024/03/17 11:27:58;;;;;;;3.40;2.73;;;;;;;;;;5078005;28;20529;-82
2024/03/17 11:30:54;;;;;;;5.83;2.90;;;;;;;;;;5081012;28;20426;-82
2024/03/17 11:33:35;;;;;;;3.63;3.10;;;;;;;;;;5075070;28;20400;-83
2024/03/17 11:36:19;;;;;;;3.10;2.80;;;;;;;;;;5077272;28;20411;-83
2024/03/17 11:38:52;;;;;;;3.60;3.30;;;;;;;;;;5084643;28;20395;-83
2024/03/17 11:41:34;;;;;;;5.60;4.07;;;;;;;;;;5079574;28;20522;-83
2024/03/17 11:44:19;;;;;;;2.70;2.50;;;;;;;;;;5088723;28;20828;-83
2024/03/17 11:46:45;;;;;;;5.03;3.07;;;;;;;;;;5078951;28;20464;-83
2024/03/17 11:49:25;;;;;;;5.30;2.80;;;;;;;;;;5082651;28;20442;-83
2024/03/17 11:51:52;;;;;;;6.70;3.50;;;;;;;;;;5084979;28;20411;-83
2024/03/17 11:54:19;;;;;;;4.63;3.90;;;;;;;;;;5081939;28;20733;-83
2024/03/17 11:56:46;;;;;;;3.47;2.73;;;;;;;;;;5081355;28;20421;-83
2024/03/17 11:59:12;;;;;;;4.63;2.80;;;;;;;;;;5081791;28;20410;-82
2024/03/17 12:01:38;;;;;;;6.40;3.70;;;;;;;;;;5081553;28;20838;-83
2024/03/17 12:04:07;;;;;;;5.33;3.60;;;;;;;;;;5083728;28;21047;-83
2024/03/17 12:06:34;;;;;;;4.23;3.43;;;;;;;;;;5079516;28;20974;-83
2024/03/17 12:09:20;;;;;;;7.63;3.80;;;;;;;;;;5084429;28;20923;-82
2024/03/17 12:11:46;;;;;;;5.23;2.90;;;;;;;;;;5078644;28;20496;-82
2024/03/17 12:14:19;;;;;;;4.13;3.70;;;;;;;;;;5087957;28;20521;-83
2024/03/17 12:16:48;;;;;;;4.97;3.30;;;;;;;;;;5077150;28;20461;-83
2024/03/17 12:19:16;;;;;;;3.70;3.20;;;;;;;;;;5076817;28;20495;-83
2024/03/17 12:21:46;;;;;;;6.30;3.87;;;;;;;;;;5074247;28;20500;-83
2024/03/17 12:24:16;;;;;;;5.77;3.67;;;;;;;;;;5085489;28;20512;-82
2024/03/17 12:26:43;;;;;;;3.87;3.27;;;;;;;;;;5081663;28;20462;-83
2024/03/17 12:29:30;;;;;;;4.20;3.80;;;;;;;;;;5092714;28;20415;-83
2024/03/17 12:32:01;;;;;;;6.10;3.17;;;;;;;;;;5077874;28;20434;-83
2024/03/17 12:34:28;;;;;;;5.50;3.77;;;;;;;;;;5084295;28;20435;-83
2024/03/17 12:36:54;;;;;;;6.93;3.77;;;;;;;;;;5081619;28;20427;-83
2024/03/17 12:39:22;;;;;;;4.50;3.23;;;;;;;;;;5081978;28;20409;-82
2024/03/17 12:42:03;;;;;;;5.70;3.80;;;;;;;;;;5086825;28;20409;-82
2024/03/17 12:44:30;;;;;;;4.97;3.93;;;;;;;;;;5077870;28;20427;-82
2024/03/17 12:47:02;;;;;;;4.20;2.90;;;;;;;;;;5089124;28;20540;-83
2024/03/17 12:49:29;;;;;;;6.17;3.47;;;;;;;;;;5082149;28;20407;-83
2024/03/17 12:51:55;;;;;;;5.37;3.33;;;;;;;;;;5079374;28;20748;-83
2024/03/17 12:54:23;;;;;;;7.40;4.30;;;;;;;;;;5078570;28;20426;-83
2024/03/17 13:02:28;;;;;;;5.07;4.20;;;;;;;;;;5087889;28;20419;-82
2024/03/17 13:05:12;;;;;;;6.30;5.13;;;;;;;;;;5073445;28;20780;-83
2024/03/17 13:07:39;;;;;;;5.30;4.47;;;;;;;;;;5082250;28;20998;-83
2024/03/17 13:10:07;;;;;;;4.90;3.70;;;;;;;;;;5083811;28;20427;-83
2024/03/17 13:12:33;;;;;;;6.50;4.23;;;;;;;;;;5078567;28;20576;-82
2024/03/17 13:14:59;;;;;;;6.70;4.10;;;;;;;;;;5082836;28;20506;-83
2024/03/17 13:17:25;;;;;;;7.77;6.17;;;;;;;;;;5078188;28;20442;-83
2024/03/17 13:19:51;;;;;;;7.87;5.07;;;;;;;;;;5094756;28;20425;-82
2024/03/17 13:22:17;;;;;;;7.77;4.90;;;;;;;;;;5072931;28;20443;-83
2024/03/17 13:24:43;;;;;;;5.07;4.00;;;;;;;;;;5073030;28;20428;-82
2024/03/17 13:27:09;;;;;;;5.73;3.50;;;;;;;;;;5071347;28;20477;-84
2024/03/17 13:29:38;;;;;;;5.57;4.23;;;;;;;;;;5070712;28;20833;-83
2024/03/17 13:32:04;;;;;;;4.63;4.17;;;;;;;;;;5068572;28;20497;-83
2024/03/17 13:34:31;;;;;;;4.23;3.33;;;;;;;;;;5073508;28;20860;-82
2024/03/17 13:36:57;;;;;;;7.23;3.70;;;;;;;;;;5075868;28;20427;-84
2024/03/17 13:39:24;;;;;;;5.20;4.23;;;;;;;;;;5090789;28;20398;-83
2024/03/17 13:41:52;;;;;;;3.93;3.60;;;;;;;;;;5068065;28;20427;-83
2024/03/17 13:44:18;;;;;;;6.93;4.10;;;;;;;;;;5082609;28;20465;-83
2024/03/17 13:46:44;;;;;;;6.00;4.40;;;;;;;;;;5079244;28;20525;-84
2024/03/17 13:49:11;;;;;;;6.50;3.67;;;;;;;;;;5086647;28;20428;-83
2024/03/17 13:51:37;;;;;;;4.27;3.50;;;;;;;;;;5074248;28;20507;-83
2024/03/17 13:54:03;;;;;;;5.00;3.50;;;;;;;;;;5076740;28;20463;-83
2024/03/17 13:56:29;;;;;;;6.73;3.30;;;;;;;;;;5078636;28;20810;-83
2024/03/17 13:58:55;;;;;;;4.60;3.70;;;;;;;;;;5073443;28;20945;-83
2024/03/17 14:01:21;;;;;;;5.73;3.80;;;;;;;;;;5073520;28;20436;-83
2024/03/17 14:03:47;;;;;;;9.67;3.70;;;;;;;;;;5069399;28;20424;-82
2024/03/17 14:06:13;;;;;;;3.53;3.07;;;;;;;;;;5072017;28;20526;-83
2024/03/17 14:08:39;;;;;;;5.30;3.60;;;;;;;;;;5071603;28;20466;-83
2024/03/17 14:11:05;;;;;;;7.30;3.70;;;;;;;;;;5083307;28;20430;-83
2024/03/17 14:13:31;;;;;;;3.60;3.30;;;;;;;;;;5075242;28;20481;-82
2024/03/17 14:15:57;;;;;;;5.90;3.40;;;;;;;;;;5072417;28;20498;-83
2024/03/17 14:18:23;;;;;;;6.50;3.70;;;;;;;;;;5073194;28;20461;-83
2024/03/17 14:20:50;;;;;;;4.63;3.77;;;;;;;;;;5078947;28;20969;-83
2024/03/17 14:23:16;;;;;;;4.83;3.77;;;;;;;;;;5072052;28;20962;-83
2024/03/17 14:25:42;;;;;;;4.03;3.20;;;;;;;;;;5074340;28;20427;-83
2024/03/17 14:28:08;;;;;;;4.90;3.87;;;;;;;;;;5073486;28;20471;-83
2024/03/17 14:30:34;;;;;;;3.70;3.30;;;;;;;;;;5075395;28;20427;-83
2024/03/17 14:33:00;;;;;;;2.90;2.57;;;;;;;;;;5072855;28;20480;-83
2024/03/17 14:35:27;;;;;;;5.10;2.90;;;;;;;;;;5083974;28;20406;-83
2024/03/17 14:37:53;;;;;;;6.83;4.17;;;;;;;;;;5082242;28;20411;-83
2024/03/17 14:40:21;;;;;;;4.13;2.97;;;;;;;;;;5080792;28;20510;-83
2024/03/17 14:42:50;;;;;;;6.13;3.23;;;;;;;;;;5082371;28;20422;-82
2024/03/17 14:45:20;;;;;;;5.30;2.40;;;;;;;;;;5075490;28;20396;-83
2024/03/17 14:47:46;;;;;;;5.80;3.10;;;;;;;;;;5086616;28;20946;-83